Time;durP1;ratioP1;P1;durP2;ratioP2;P2;SDS_P1;SDS_P2;PMS_P1;PMS_P2;Temp;Humidity;BMP_temperature;BMP_pressure;BME280_temperature;BME280_humidity;BME280_pressure;Samples;Min_cycle;Max_cycle;Signal;HPM_P1;HPM_P2
2022/03/09 00:00:52;;;;;;;4.07;3.67;;;16.40;40.90;;;;;;4913705;28;99871;-68
2022/03/09 00:03:17;;;;;;;4.40;3.75;;;16.40;40.80;;;;;;4913494;28;92680;-68
2022/03/09 00:05:43;;;;;;;5.22;3.92;;;16.40;40.80;;;;;;4912942;28;95802;-68
2022/03/09 00:08:09;;;;;;;4.10;3.70;;;16.40;40.80;;;;;;4913056;28;99131;-68
2022/03/09 00:10:35;;;;;;;4.78;3.90;;;16.40;40.80;;;;;;4914077;28;93157;-68
2022/03/09 00:13:00;;;;;;;4.57;4.03;;;16.40;40.80;;;;;;4914345;28;91823;-68
2022/03/09 00:15:26;;;;;;;4.57;3.80;;;16.40;40.80;;;;;;4913532;28;94429;-68
2022/03/09 00:17:52;;;;;;;5.32;3.88;;;16.40;40.80;;;;;;4913668;28;92727;-68
2022/03/09 00:20:18;;;;;;;4.70;4.05;;;16.40;40.80;;;;;;4912893;28;94854;-69
2022/03/09 00:22:43;;;;;;;4.15;3.65;;;16.30;40.80;;;;;;4914334;28;93056;-68
2022/03/09 00:25:09;;;;;;;4.35;3.63;;;16.30;40.80;;;;;;4913528;28;103948;-67
2022/03/09 00:27:35;;;;;;;4.20;3.60;;;16.30;41.80;;;;;;4913834;28;93409;-68
2022/03/09 00:30:01;;;;;;;4.35;3.95;;;16.30;40.90;;;;;;4913944;28;92974;-68
2022/03/09 00:32:27;;;;;;;5.35;4.00;;;16.30;40.90;;;;;;4913767;28;92592;-68
2022/03/09 00:34:53;;;;;;;4.43;4.03;;;16.30;40.90;;;;;;4912717;28;93904;-70
2022/03/09 00:37:20;;;;;;;4.35;3.83;;;16.30;40.80;;;;;;4913614;28;92683;-68
2022/03/09 00:39:46;;;;;;;4.80;3.90;;;16.30;40.80;;;;;;4913775;28;92513;-68
2022/03/09 00:42:11;;;;;;;4.30;3.90;;;16.30;40.80;;;;;;4913527;28;92938;-68
2022/03/09 00:44:37;;;;;;;4.82;3.85;;;16.30;40.90;;;;;;4910201;28;96655;-68
2022/03/09 00:47:03;;;;;;;4.03;3.63;;;16.30;40.90;;;;;;4910930;28;95076;-69
2022/03/09 00:49:30;;;;;;;4.43;3.90;;;16.30;40.90;;;;;;4911630;28;92996;-68
2022/03/09 00:51:55;;;;;;;4.40;3.97;;;16.20;40.80;;;;;;4911528;28;97279;-68
2022/03/09 00:54:21;;;;;;;4.60;4.10;;;16.20;40.80;;;;;;4912136;28;92891;-68
2022/03/09 00:56:48;;;;;;;4.95;4.00;;;16.20;40.90;;;;;;4911705;28;92758;-68
2022/03/09 00:59:13;;;;;;;5.85;4.40;;;16.20;40.90;;;;;;4910624;28;92849;-68
2022/03/09 01:01:40;;;;;;;4.90;4.20;;;16.20;40.90;;;;;;4911664;28;92121;-69
2022/03/09 01:04:06;;;;;;;4.38;3.97;;;16.20;40.80;;;;;;4910379;28;93045;-68
2022/03/09 01:06:32;;;;;;;4.40;4.00;;;16.20;40.80;;;;;;4910620;28;93005;-68
2022/03/09 01:08:57;;;;;;;4.40;3.95;;;16.20;40.80;;;;;;4910997;28;95147;-68
2022/03/09 01:11:24;;;;;;;4.63;3.80;;;16.10;40.80;;;;;;4911827;28;92982;-67
2022/03/09 01:13:49;;;;;;;4.70;3.90;;;16.20;40.80;;;;;;4911320;28;94199;-68
2022/03/09 01:16:15;;;;;;;4.60;3.92;;;16.20;40.80;;;;;;4912908;28;105451;-69
2022/03/09 01:18:42;;;;;;;4.75;4.00;;;16.10;40.80;;;;;;4915606;28;92585;-68
2022/03/09 01:21:08;;;;;;;4.70;3.95;;;16.20;40.80;;;;;;4913509;28;94304;-68
2022/03/09 01:23:34;;;;;;;4.68;4.18;;;16.10;40.80;;;;;;4912968;28;94110;-68
2022/03/09 01:25:59;;;;;;;6.65;3.90;;;16.10;40.80;;;;;;4911824;28;99584;-68
2022/03/09 01:28:25;;;;;;;6.22;4.43;;;16.10;40.80;;;;;;4912005;28;92935;-68
2022/03/09 01:30:51;;;;;;;4.90;4.40;;;16.10;40.80;;;;;;4911985;28;92857;-68
2022/03/09 01:33:17;;;;;;;4.88;4.30;;;16.10;40.70;;;;;;4909982;28;96064;-68
2022/03/09 01:35:42;;;;;;;4.85;4.35;;;16.10;40.70;;;;;;4911495;28;95070;-69
2022/03/09 01:38:08;;;;;;;4.90;4.30;;;16.10;40.70;;;;;;4909900;28;92928;-68
2022/03/09 01:40:34;;;;;;;5.70;4.68;;;16.10;40.70;;;;;;4911333;28;92468;-68
2022/03/09 01:42:59;;;;;;;5.28;4.50;;;16.10;40.70;;;;;;4910360;28;94282;-68
2022/03/09 01:45:25;;;;;;;5.00;4.50;;;16.00;40.60;;;;;;4873220;28;1100091;-68
2022/03/09 01:47:51;;;;;;;5.13;4.63;;;16.00;40.70;;;;;;4911952;28;93099;-68
2022/03/09 01:50:16;;;;;;;4.97;4.47;;;16.00;40.60;;;;;;4912885;28;92003;-68
2022/03/09 01:52:43;;;;;;;4.97;4.47;;;16.00;40.50;;;;;;4911370;28;93071;-68
2022/03/09 01:55:09;;;;;;;5.93;4.90;;;16.00;40.60;;;;;;4911617;28;92814;-68
2022/03/09 01:57:35;;;;;;;5.68;4.60;;;16.00;40.60;;;;;;4910430;28;95509;-68
2022/03/09 02:00:03;;;;;;;5.63;4.93;;;16.00;40.60;;;;;;4912019;28;92878;-67
2022/03/09 02:02:29;;;;;;;5.70;4.90;;;16.00;40.60;;;;;;4912398;28;93347;-69
2022/03/09 02:04:55;;;;;;;5.15;4.65;;;16.00;40.60;;;;;;4912013;28;93953;-68
2022/03/09 02:09:41;;;;;;;5.55;5.03;;;16.00;40.60;;;;;;4912890;28;92628;-68
2022/03/09 02:10:10;;;;;;;5.57;4.70;;;15.90;40.60;;;;;;4911966;28;93109;-68
2022/03/09 02:12:36;;;;;;;6.32;5.03;;;16.00;40.60;;;;;;4912280;28;94369;-68
2022/03/09 02:15:01;;;;;;;5.95;4.88;;;15.90;40.50;;;;;;4912507;28;93180;-69
2022/03/09 02:17:28;;;;;;;6.10;4.80;;;15.90;40.60;;;;;;4911969;28;93111;-68
2022/03/09 02:19:55;;;;;;;5.82;4.82;;;15.90;40.60;;;;;;4911474;28;94303;-68
2022/03/09 02:22:31;;;;;;;5.07;4.45;;;15.90;40.50;;;;;;4910609;28;95571;-69
2022/03/09 02:24:57;;;;;;;6.25;4.93;;;15.90;40.50;;;;;;4911061;28;95638;-68
2022/03/09 02:27:23;;;;;;;5.28;4.78;;;15.90;40.50;;;;;;4912002;28;92735;-68
2022/03/09 02:29:50;;;;;;;7.10;5.15;;;15.90;40.50;;;;;;4911122;28;92532;-68
2022/03/09 02:32:16;;;;;;;5.88;5.03;;;15.90;40.40;;;;;;4911756;28;93202;-68
2022/03/09 02:34:42;;;;;;;6.78;5.38;;;15.90;40.40;;;;;;4911523;28;93509;-68
2022/03/09 02:37:08;;;;;;;5.90;5.30;;;15.90;40.40;;;;;;4911096;28;92599;-68
2022/03/09 02:39:34;;;;;;;6.38;5.70;;;15.90;40.50;;;;;;4911665;28;92166;-68
2022/03/09 02:42:00;;;;;;;6.05;5.13;;;15.80;40.30;;;;;;4911262;28;93147;-68
2022/03/09 02:44:26;;;;;;;6.22;5.20;;;15.90;40.40;;;;;;4910941;28;92802;-68
2022/03/09 02:46:53;;;;;;;6.57;5.63;;;15.90;40.40;;;;;;4909986;28;95543;-68
2022/03/09 02:49:18;;;;;;;6.45;5.72;;;15.80;40.30;;;;;;4910416;28;94131;-68
2022/03/09 02:51:44;;;;;;;5.95;5.35;;;15.80;40.30;;;;;;4910652;28;104740;-68
2022/03/09 02:54:10;;;;;;;5.43;4.78;;;15.80;40.30;;;;;;4911657;28;92861;-69
2022/03/09 02:56:35;;;;;;;6.65;5.72;;;15.80;40.30;;;;;;4913682;28;93036;-68
2022/03/09 02:59:01;;;;;;;6.63;5.65;;;15.80;40.30;;;;;;4918677;28;93104;-70
2022/03/09 03:01:26;;;;;;;6.57;5.47;;;15.80;40.40;;;;;;4920013;28;93093;-69
2022/03/09 03:03:52;;;;;;;6.20;5.60;;;15.80;40.40;;;;;;4916180;28;92709;-68
2022/03/09 03:06:18;;;;;;;7.30;5.90;;;15.70;40.30;;;;;;4914753;28;92477;-68
2022/03/09 03:08:43;;;;;;;6.10;5.30;;;15.70;40.20;;;;;;4914555;28;92679;-68
2022/03/09 03:11:10;;;;;;;6.13;5.53;;;15.70;40.20;;;;;;4912301;28;96175;-68
2022/03/09 03:13:38;;;;;;;5.75;5.25;;;15.70;40.20;;;;;;4914564;28;96289;-69
2022/03/09 03:16:04;;;;;;;7.05;5.72;;;15.70;40.20;;;;;;4914766;28;92742;-68
2022/03/09 03:18:30;;;;;;;6.78;5.68;;;15.70;40.20;;;;;;4913550;28;92581;-68
2022/03/09 03:20:55;;;;;;;6.63;5.93;;;15.70;40.20;;;;;;4914716;28;93192;-68
2022/03/09 03:23:22;;;;;;;7.05;5.82;;;15.70;40.20;;;;;;4913961;28;93881;-68
2022/03/09 03:25:49;;;;;;;6.07;5.47;;;15.70;40.10;;;;;;4914431;28;92507;-68
2022/03/09 03:28:15;;;;;;;6.38;5.68;;;15.70;40.20;;;;;;4914221;28;91703;-68
2022/03/09 03:30:41;;;;;;;7.07;6.30;;;15.70;40.10;;;;;;4914364;28;94149;-68
2022/03/09 03:33:06;;;;;;;7.28;6.18;;;15.70;40.10;;;;;;4914224;28;92758;-68
2022/03/09 03:35:32;;;;;;;7.85;5.95;;;15.70;40.10;;;;;;4913308;28;95242;-68
2022/03/09 03:37:57;;;;;;;6.70;6.00;;;15.70;40.10;;;;;;4913993;28;93178;-68
2022/03/09 03:40:23;;;;;;;7.43;5.60;;;15.70;40.20;;;;;;4913473;28;93753;-68
2022/03/09 03:42:48;;;;;;;7.53;6.07;;;15.70;40.10;;;;;;4913156;28;92804;-68
2022/03/09 03:45:14;;;;;;;6.88;5.93;;;15.70;40.10;;;;;;4913108;28;92555;-67
2022/03/09 03:47:40;;;;;;;6.55;5.95;;;15.70;40.00;;;;;;4914479;28;92992;-67
2022/03/09 03:50:06;;;;;;;6.65;5.80;;;15.60;40.10;;;;;;4913826;28;94131;-67
2022/03/09 03:52:31;;;;;;;6.72;5.78;;;15.60;40.00;;;;;;4914273;28;92797;-67
2022/03/09 03:55:04;;;;;;;6.63;5.75;;;15.60;40.00;;;;;;4913638;28;92576;-67
2022/03/09 03:57:29;;;;;;;7.03;5.88;;;15.60;40.00;;;;;;4913919;28;92931;-67
2022/03/09 03:59:55;;;;;;;6.63;5.90;;;15.60;40.10;;;;;;4912019;28;95375;-67
2022/03/09 05:45:48;;;;;;;6.88;5.78;;;15.70;38.90;;;;;;4762631;26;92886;-69
2022/03/09 05:48:14;;;;;;;7.93;6.07;;;15.80;39.00;;;;;;4950985;28;92632;-67
2022/03/09 05:50:40;;;;;;;7.50;6.18;;;15.70;38.90;;;;;;4950119;28;112316;-66
2022/03/09 05:53:05;;;;;;;7.85;6.68;;;15.70;38.90;;;;;;4951020;28;95121;-67
2022/03/09 05:55:32;;;;;;;8.68;6.10;;;15.70;38.80;;;;;;4951107;28;92974;-66
2022/03/09 05:57:57;;;;;;;6.75;5.93;;;15.70;38.90;;;;;;4951292;28;92779;-66
2022/03/09 06:00:23;;;;;;;6.93;6.22;;;15.70;38.80;;;;;;4949931;28;94254;-67
2022/03/09 06:02:49;;;;;;;7.18;5.68;;;15.70;38.80;;;;;;4950824;28;101499;-67
2022/03/09 06:05:14;;;;;;;7.10;6.00;;;15.80;38.80;;;;;;4949861;28;93785;-67
2022/03/09 06:07:40;;;;;;;7.65;5.78;;;15.90;38.70;;;;;;4950804;28;92048;-67
2022/03/09 06:10:06;;;;;;;6.20;5.30;;;15.90;38.60;;;;;;4950049;28;95243;-68
2022/03/09 06:12:32;;;;;;;8.63;5.72;;;16.10;38.50;;;;;;4950855;28;94447;-68
2022/03/09 06:14:57;;;;;;;8.00;5.63;;;16.20;38.30;;;;;;4949803;28;94970;-67
2022/03/09 06:17:23;;;;;;;7.22;5.80;;;16.30;38.00;;;;;;4950922;28;92486;-68
2022/03/09 06:19:49;;;;;;;6.53;5.45;;;16.50;37.80;;;;;;4950025;28;93060;-68
2022/03/09 06:22:14;;;;;;;6.90;5.22;;;16.60;38.60;;;;;;4949827;28;94278;-67
2022/03/09 06:24:40;;;;;;;6.18;5.28;;;16.70;37.40;;;;;;4951151;28;92457;-67
2022/03/09 06:27:06;;;;;;;5.53;4.90;;;16.90;37.30;;;;;;4950750;28;93085;-69
2022/03/09 06:29:32;;;;;;;6.80;4.80;;;17.00;37.00;;;;;;4951167;28;93408;-67
2022/03/09 06:31:58;;;;;;;5.38;4.80;;;17.00;36.90;;;;;;4949504;28;92833;-68
2022/03/09 06:34:23;;;;;;;6.40;4.70;;;17.10;36.80;;;;;;4950302;28;92923;-67
2022/03/09 06:36:51;;;;;;;6.18;4.72;;;17.20;36.80;;;;;;4950405;28;92898;-68
2022/03/09 06:39:17;;;;;;;7.35;5.10;;;17.20;36.60;;;;;;4948471;28;97590;-67
2022/03/09 06:41:45;;;;;;;14.13;5.18;;;17.20;36.50;;;;;;4950848;28;95290;-67
2022/03/09 06:44:12;;;;;;;11.60;5.43;;;17.30;36.50;;;;;;4949162;28;92635;-67
2022/03/09 06:46:38;;;;;;;9.68;4.88;;;17.20;36.40;;;;;;4949568;28;92563;-72
2022/03/09 06:49:04;;;;;;;8.20;4.70;;;17.20;36.50;;;;;;4950408;28;93538;-68
2022/03/09 06:51:30;;;;;;;11.20;5.10;;;17.20;36.60;;;;;;4949815;28;93027;-68
2022/03/09 06:53:56;;;;;;;12.32;5.18;;;17.20;36.70;;;;;;4949538;28;93206;-68
2022/03/09 06:56:22;;;;;;;8.15;4.80;;;17.20;36.90;;;;;;4951087;28;92038;-68
2022/03/09 06:58:47;;;;;;;7.35;4.80;;;17.10;37.00;;;;;;4950053;28;93911;-68
2022/03/09 07:01:13;;;;;;;9.15;4.68;;;17.10;37.20;;;;;;4949700;28;92770;-68
2022/03/09 07:03:40;;;;;;;8.98;4.95;;;17.10;37.50;;;;;;4949681;28;95431;-68
2022/03/09 07:06:05;;;;;;;8.35;5.00;;;17.00;37.60;;;;;;4949139;28;92613;-68
2022/03/09 07:08:31;;;;;;;11.25;5.60;;;17.00;37.70;;;;;;4950076;28;93314;-68
2022/03/09 07:10:58;;;;;;;8.00;4.75;;;17.00;37.80;;;;;;4950740;28;93598;-68
2022/03/09 07:13:25;;;;;;;8.48;5.30;;;16.90;37.80;;;;;;4950226;28;92902;-68
2022/03/09 07:15:51;;;;;;;10.40;5.03;;;16.90;37.90;;;;;;4950098;28;92522;-68
2022/03/09 07:18:16;;;;;;;9.15;5.10;;;16.90;38.00;;;;;;4949569;28;94924;-68
2022/03/09 07:20:42;;;;;;;7.20;4.72;;;16.90;37.90;;;;;;4950917;28;92487;-68
2022/03/09 07:23:08;;;;;;;6.35;4.53;;;16.90;37.90;;;;;;4949938;28;92521;-68
2022/03/09 07:25:34;;;;;;;6.25;4.47;;;16.90;38.00;;;;;;4950275;28;93199;-67
2022/03/09 07:28:01;;;;;;;7.85;4.68;;;16.90;37.90;;;;;;4948257;28;95582;-67
2022/03/09 07:30:27;;;;;;;7.28;4.72;;;17.00;37.90;;;;;;4948871;28;95084;-67
2022/03/09 07:32:53;;;;;;;10.40;5.13;;;17.00;37.80;;;;;;4950407;28;93086;-67
2022/03/09 07:35:20;;;;;;;8.90;4.90;;;17.00;37.80;;;;;;4949685;28;92637;-67
2022/03/09 07:37:46;;;;;;;6.10;4.50;;;17.10;37.70;;;;;;4949609;28;93604;-67
2022/03/09 07:40:11;;;;;;;8.70;4.25;;;17.10;37.70;;;;;;4949501;28;92830;-69
2022/03/09 07:42:39;;;;;;;7.97;4.43;;;17.10;37.60;;;;;;4950017;28;92640;-68
2022/03/09 07:45:08;;;;;;;6.43;4.10;;;17.20;37.60;;;;;;4965278;28;93389;-68
2022/03/09 07:47:34;;;;;;;7.13;4.50;;;17.20;37.60;;;;;;4971573;28;93544;-70
2022/03/09 07:50:00;;;;;;;5.55;4.13;;;17.20;37.60;;;;;;4972322;28;92798;-68
2022/03/09 07:52:26;;;;;;;5.03;4.50;;;17.20;37.60;;;;;;4972073;28;95603;-67
2022/03/09 07:54:51;;;;;;;5.63;4.30;;;17.30;37.60;;;;;;4972981;28;92549;-68
2022/03/09 07:57:17;;;;;;;7.43;3.97;;;17.30;38.60;;;;;;4971709;28;101735;-67
2022/03/09 07:59:42;;;;;;;7.40;4.97;;;17.30;37.50;;;;;;4971994;28;92739;-68
2022/03/09 08:02:08;;;;;;;6.20;4.30;;;17.30;37.40;;;;;;4972738;28;93062;-68
2022/03/09 08:04:34;;;;;;;6.57;4.22;;;17.30;37.40;;;;;;4972656;28;92681;-68
2022/03/09 08:07:00;;;;;;;7.20;4.18;;;17.40;37.50;;;;;;4972067;28;94154;-67
2022/03/09 08:09:25;;;;;;;6.65;4.07;;;17.40;37.50;;;;;;4972508;28;92738;-67
2022/03/09 08:11:51;;;;;;;5.13;4.15;;;17.40;37.40;;;;;;4972378;28;92648;-67
2022/03/09 08:14:16;;;;;;;7.18;4.18;;;17.40;37.40;;;;;;4972871;28;93109;-68
2022/03/09 08:16:42;;;;;;;6.03;3.90;;;17.40;37.40;;;;;;4956945;28;96390;-68
2022/03/09 08:19:08;;;;;;;6.25;4.07;;;17.40;37.30;;;;;;4973516;28;96419;-67
2022/03/09 08:21:33;;;;;;;6.22;3.88;;;17.50;37.40;;;;;;4972818;28;92590;-67
2022/03/09 08:23:59;;;;;;;7.20;4.45;;;17.50;37.30;;;;;;4972284;28;92586;-68
2022/03/09 08:26:25;;;;;;;5.38;3.60;;;17.50;37.40;;;;;;4971145;28;93116;-68
2022/03/09 08:28:51;;;;;;;6.97;3.92;;;17.50;37.40;;;;;;4971259;28;92842;-67
2022/03/09 08:31:18;;;;;;;6.45;4.00;;;17.50;37.40;;;;;;4971545;28;92879;-68
2022/03/09 08:33:44;;;;;;;6.10;3.90;;;17.50;37.30;;;;;;4973441;28;92223;-67
2022/03/09 08:36:13;;;;;;;6.55;4.18;;;17.50;37.40;;;;;;4971740;28;100083;-67
2022/03/09 08:38:38;;;;;;;6.20;3.83;;;17.50;37.40;;;;;;4971850;28;93045;-67
2022/03/09 08:41:04;;;;;;;6.75;3.78;;;17.50;37.40;;;;;;4970615;28;95398;-67
2022/03/09 08:43:31;;;;;;;6.07;4.05;;;17.50;37.30;;;;;;4971380;28;93057;-67
2022/03/09 08:45:57;;;;;;;7.32;3.75;;;17.50;37.30;;;;;;4971587;28;93329;-68
2022/03/09 08:48:26;;;;;;;5.63;3.50;;;17.60;37.40;;;;;;4954164;28;92984;-67
2022/03/09 08:50:53;;;;;;;5.60;3.65;;;17.60;37.30;;;;;;4971423;28;93131;-68
2022/03/09 08:53:19;;;;;;;5.40;3.92;;;17.60;37.30;;;;;;4971145;28;92794;-67
2022/03/09 08:55:45;;;;;;;5.40;3.95;;;17.70;37.40;;;;;;4969993;28;93961;-67
2022/03/09 08:58:11;;;;;;;6.43;3.42;;;17.70;37.40;;;;;;4971209;28;98040;-68
2022/03/09 09:00:37;;;;;;;7.20;3.65;;;17.70;37.40;;;;;;4972278;28;96034;-68
2022/03/09 09:03:04;;;;;;;5.55;3.60;;;17.70;37.40;;;;;;4972026;28;92827;-69
2022/03/09 09:05:30;;;;;;;5.72;3.30;;;17.70;37.50;;;;;;4970596;28;96075;-68
2022/03/09 09:07:56;;;;;;;4.28;3.63;;;17.70;37.40;;;;;;4970501;28;96515;-67
2022/03/09 09:10:22;;;;;;;4.85;3.45;;;17.70;37.40;;;;;;4971805;28;92962;-68
2022/03/09 09:12:50;;;;;;;5.63;3.33;;;17.80;37.40;;;;;;4971579;28;92932;-67
2022/03/09 09:15:15;;;;;;;4.40;3.53;;;17.70;37.40;;;;;;4970691;28;93081;-68
2022/03/09 09:17:41;;;;;;;6.72;3.90;;;17.80;37.40;;;;;;4970051;28;92863;-68
2022/03/09 09:20:07;;;;;;;5.05;3.65;;;17.80;37.40;;;;;;4970536;28;93703;-67
2022/03/09 09:22:33;;;;;;;5.68;3.80;;;17.90;37.40;;;;;;4971165;28;91853;-68
2022/03/09 09:25:00;;;;;;;4.55;3.25;;;17.90;37.40;;;;;;4971039;28;102875;-68
2022/03/09 09:27:26;;;;;;;5.00;3.65;;;17.90;37.40;;;;;;4970874;28;92989;-68
2022/03/09 09:29:51;;;;;;;4.60;3.17;;;17.90;37.40;;;;;;4969577;28;95328;-68
2022/03/09 09:32:17;;;;;;;4.28;3.40;;;17.90;37.40;;;;;;4971328;28;92986;-71
2022/03/09 09:34:42;;;;;;;3.47;3.10;;;18.00;37.50;;;;;;4971530;28;93027;-67
2022/03/09 09:37:08;;;;;;;5.15;3.63;;;17.90;37.50;;;;;;4970689;28;92667;-68
2022/03/09 09:39:34;;;;;;;3.97;3.05;;;17.90;37.50;;;;;;4971063;28;92566;-68
2022/03/09 09:42:00;;;;;;;4.78;3.58;;;17.90;37.70;;;;;;4971750;28;92531;-67
2022/03/09 09:44:25;;;;;;;4.65;3.65;;;17.90;37.70;;;;;;4969411;28;92842;-67
2022/03/09 09:46:53;;;;;;;5.43;3.22;;;17.90;37.80;;;;;;4971439;28;92281;-67
2022/03/09 09:49:24;;;;;;;5.68;3.22;;;17.90;37.80;;;;;;4970861;28;92462;-67
2022/03/09 09:51:51;;;;;;;5.05;3.42;;;18.00;37.90;;;;;;4970147;28;93070;-68
2022/03/09 09:54:17;;;;;;;5.72;3.70;;;18.00;37.90;;;;;;4968957;28;96582;-68
2022/03/09 09:56:43;;;;;;;4.53;3.38;;;18.00;37.80;;;;;;4970277;28;96199;-68
2022/03/09 09:59:11;;;;;;;3.97;3.13;;;18.00;37.80;;;;;;4970981;28;93054;-68
2022/03/09 10:01:36;;;;;;;4.35;3.10;;;18.10;37.90;;;;;;4970334;28;92974;-68
2022/03/09 10:04:05;;;;;;;4.75;3.33;;;18.10;37.80;;;;;;4971054;28;93632;-67
2022/03/09 10:06:31;;;;;;;4.72;3.30;;;18.10;37.90;;;;;;4970591;28;92757;-68
2022/03/09 10:09:03;;;;;;;5.43;3.20;;;18.10;37.90;;;;;;4970714;28;93103;-69
2022/03/09 10:11:46;;;;;;;7.22;3.33;;;18.10;37.90;;;;;;4971072;28;91844;-68
2022/03/09 10:14:13;;;;;;;6.80;3.65;;;18.20;37.90;;;;;;4970971;28;93780;-68
2022/03/09 10:16:59;;;;;;;4.93;3.35;;;18.20;38.00;;;;;;4970718;28;93832;-68
2022/03/09 10:19:33;;;;;;;3.85;3.13;;;18.20;38.00;;;;;;4970449;28;94872;-67
2022/03/09 10:21:59;;;;;;;4.53;3.17;;;18.20;38.10;;;;;;4971199;28;93049;-68
2022/03/09 10:24:35;;;;;;;6.00;3.38;;;18.30;38.20;;;;;;4971139;28;93712;-68
2022/03/09 10:27:01;;;;;;;4.75;3.28;;;18.30;38.10;;;;;;4970267;28;94061;-67
2022/03/09 10:29:28;;;;;;;4.60;3.40;;;18.30;38.20;;;;;;4970395;28;93016;-68
2022/03/09 10:31:59;;;;;;;5.88;3.33;;;18.30;38.20;;;;;;4970338;28;93211;-68
2022/03/09 10:34:26;;;;;;;4.65;3.20;;;18.40;38.10;;;;;;4969515;28;95082;-68
2022/03/09 10:37:02;;;;;;;3.88;3.25;;;18.40;38.10;;;;;;4970616;28;93034;-68
2022/03/09 10:39:30;;;;;;;6.35;3.30;;;18.40;39.20;;;;;;4970687;28;92773;-68
2022/03/09 10:41:58;;;;;;;5.78;3.33;;;18.40;38.10;;;;;;4970519;28;92680;-68
2022/03/09 10:44:42;;;;;;;5.95;3.03;;;18.50;38.20;;;;;;4967338;28;97768;-68
2022/03/09 10:47:08;;;;;;;5.63;3.38;;;18.50;38.10;;;;;;4969272;28;96568;-68
2022/03/09 10:49:34;;;;;;;3.72;2.90;;;18.50;38.20;;;;;;4969851;28;92563;-68
2022/03/09 10:52:01;;;;;;;5.05;3.13;;;18.50;38.20;;;;;;4970106;28;93030;-68
2022/03/09 10:54:29;;;;;;;4.70;2.95;;;18.50;38.20;;;;;;4969328;28;94105;-69
2022/03/09 10:57:03;;;;;;;3.88;3.03;;;18.50;38.30;;;;;;4968730;28;93486;-68
2022/03/09 10:59:41;;;;;;;4.80;3.42;;;18.40;38.30;;;;;;4969842;28;92612;-68
2022/03/09 11:02:09;;;;;;;5.03;3.13;;;18.40;38.40;;;;;;4969433;28;92408;-68
2022/03/09 11:04:35;;;;;;;5.85;3.00;;;18.40;38.50;;;;;;4970040;28;93482;-68
2022/03/09 11:07:01;;;;;;;5.05;2.95;;;18.30;38.60;;;;;;4969474;28;92844;-68
2022/03/09 11:09:28;;;;;;;3.85;2.88;;;18.30;38.60;;;;;;4951179;28;95328;-68
2022/03/09 11:11:55;;;;;;;3.50;2.80;;;18.30;38.80;;;;;;4970193;28;92978;-67
2022/03/09 11:14:25;;;;;;;4.90;3.00;;;18.20;38.80;;;;;;4968842;28;95223;-67
2022/03/09 11:16:52;;;;;;;4.07;3.00;;;18.20;38.90;;;;;;4969678;28;94893;-67
2022/03/09 11:19:18;;;;;;;3.95;2.97;;;18.20;39.00;;;;;;4972896;28;92935;-68
2022/03/09 11:21:44;;;;;;;5.13;3.10;;;18.10;39.00;;;;;;4972955;28;93252;-68
2022/03/09 11:24:11;;;;;;;4.13;3.25;;;18.10;39.10;;;;;;4973233;28;94110;-68
2022/03/09 11:26:43;;;;;;;4.68;2.90;;;18.10;39.20;;;;;;4973453;28;92752;-68
2022/03/09 11:29:12;;;;;;;4.38;3.08;;;18.00;39.20;;;;;;4973616;28;93011;-68
2022/03/09 11:31:54;;;;;;;4.03;3.30;;;18.00;39.30;;;;;;4973041;28;92973;-68
2022/03/09 11:34:42;;;;;;;3.97;3.00;;;18.00;39.40;;;;;;4954049;28;95993;-68
2022/03/09 11:37:26;;;;;;;4.50;3.22;;;18.00;39.60;;;;;;4972366;28;96233;-68
2022/03/09 11:40:06;;;;;;;4.63;3.33;;;17.90;39.50;;;;;;4972965;28;93129;-68
2022/03/09 11:42:38;;;;;;;4.75;3.50;;;17.90;39.60;;;;;;4971451;28;93354;-68
2022/03/09 11:45:29;;;;;;;4.50;3.33;;;17.80;39.60;;;;;;4972620;28;93208;-68
2022/03/09 11:48:21;;;;;;;4.93;3.10;;;17.80;39.70;;;;;;4973958;28;94490;-68
2022/03/09 11:50:47;;;;;;;4.78;3.30;;;17.80;39.70;;;;;;4976234;28;92584;-68
2022/03/09 11:53:14;;;;;;;3.85;3.40;;;17.80;39.90;;;;;;4975012;28;92095;-68
2022/03/09 11:55:40;;;;;;;5.20;3.38;;;17.80;40.90;;;;;;4972941;28;92542;-69
2022/03/09 11:58:13;;;;;;;3.78;3.17;;;17.70;39.90;;;;;;4972318;28;93935;-68
2022/03/09 12:00:59;;;;;;;4.50;3.35;;;17.70;40.00;;;;;;4970118;28;95150;-68
2022/03/09 12:03:39;;;;;;;4.50;3.55;;;17.70;40.00;;;;;;4972207;28;92841;-68
2022/03/09 12:06:05;;;;;;;6.75;3.80;;;17.70;40.00;;;;;;4971492;28;93394;-68
2022/03/09 12:08:46;;;;;;;18.98;11.65;;;17.70;40.00;;;;;;4972758;28;92819;-67
2022/03/09 12:11:12;;;;;;;147.45;115.30;;;17.70;40.60;;;;;;4971879;28;92952;-67
2022/03/09 12:13:43;;;;;;;61.05;46.50;;;17.70;41.20;;;;;;4971260;28;92754;-68
2022/03/09 12:16:28;;;;;;;58.78;42.58;;;17.70;41.50;;;;;;4970527;28;94201;-68
2022/03/09 12:18:57;;;;;;;49.45;38.05;;;17.70;41.50;;;;;;4970284;28;94296;-67
2022/03/09 12:21:25;;;;;;;52.15;39.25;;;17.70;41.30;;;;;;4971181;28;92859;-68
2022/03/09 12:24:06;;;;;;;54.20;38.30;;;17.70;41.50;;;;;;4971365;28;92962;-67
2022/03/09 12:26:38;;;;;;;49.58;38.67;;;17.70;41.30;;;;;;4969523;28;96634;-67
2022/03/09 12:29:03;;;;;;;48.33;37.10;;;17.70;41.30;;;;;;4970901;28;95226;-68
2022/03/09 12:31:30;;;;;;;49.55;36.92;;;17.70;41.40;;;;;;4971230;28;93100;-68
2022/03/09 12:33:56;;;;;;;57.95;36.60;;;17.70;41.40;;;;;;4970797;28;92522;-68
2022/03/09 12:36:25;;;;;;;47.95;35.55;;;17.70;41.40;;;;;;4970795;28;93140;-68
2022/03/09 12:38:56;;;;;;;43.83;35.20;;;17.70;41.50;;;;;;4970621;28;93339;-68
2022/03/09 12:41:44;;;;;;;50.17;34.67;;;17.70;41.40;;;;;;4970691;28;92848;-68
2022/03/09 12:44:14;;;;;;;45.20;34.40;;;17.70;41.50;;;;;;4971074;28;92213;-68
2022/03/09 12:46:43;;;;;;;41.53;33.28;;;17.60;41.40;;;;;;4971313;28;93050;-68
2022/03/09 12:49:14;;;;;;;42.30;31.92;;;17.60;41.40;;;;;;4971160;28;93995;-68
2022/03/09 12:51:52;;;;;;;40.58;31.77;;;17.60;41.40;;;;;;4969599;28;95238;-68
2022/03/09 12:54:33;;;;;;;40.38;31.75;;;17.60;41.40;;;;;;4971717;28;92711;-68
2022/03/09 12:57:23;;;;;;;38.60;29.80;;;17.60;41.40;;;;;;4971194;28;93336;-68
2022/03/09 13:00:17;;;;;;;37.30;28.90;;;17.70;41.50;;;;;;4971547;28;94024;-68
2022/03/09 13:02:49;;;;;;;36.00;29.65;;;17.60;41.40;;;;;;4970873;28;93931;-68
2022/03/09 13:05:20;;;;;;;38.45;28.10;;;17.60;41.50;;;;;;4971475;28;92916;-69
2022/03/09 13:07:58;;;;;;;35.60;28.00;;;17.60;41.40;;;;;;4970459;28;93704;-70
2022/03/09 13:10:26;;;;;;;36.05;27.42;;;17.60;41.50;;;;;;4971643;28;94493;-68
2022/03/09 13:12:56;;;;;;;35.88;26.38;;;17.60;41.40;;;;;;4971252;28;93450;-69
2022/03/09 13:15:34;;;;;;;40.55;27.50;;;17.60;41.50;;;;;;4971180;28;92831;-68
2022/03/09 13:18:00;;;;;;;34.88;26.77;;;17.60;41.50;;;;;;4968738;28;98710;-68
2022/03/09 13:20:26;;;;;;;30.23;25.40;;;17.60;41.50;;;;;;4970362;28;95742;-68
2022/03/09 13:22:52;;;;;;;33.53;24.40;;;17.60;41.50;;;;;;4970320;28;92556;-68
2022/03/09 13:25:17;;;;;;;29.98;23.80;;;17.60;41.40;;;;;;4970425;28;92524;-68
2022/03/09 13:27:45;;;;;;;33.92;24.35;;;17.60;42.40;;;;;;4970305;28;93008;-68
2022/03/09 13:30:22;;;;;;;32.30;24.38;;;17.60;41.40;;;;;;4970315;28;93167;-69
2022/03/09 13:32:48;;;;;;;26.30;22.35;;;17.60;41.40;;;;;;4970943;28;92974;-68
2022/03/09 13:35:22;;;;;;;31.67;23.25;;;17.60;41.30;;;;;;4971480;28;92196;-68
2022/03/09 13:37:48;;;;;;;30.83;23.15;;;17.70;41.40;;;;;;4972154;28;94323;-68
2022/03/09 13:40:14;;;;;;;28.75;21.73;;;17.60;41.30;;;;;;4970759;28;93334;-68
2022/03/09 13:42:42;;;;;;;26.63;20.90;;;17.60;41.30;;;;;;4968642;28;95066;-68
2022/03/09 13:45:12;;;;;;;26.75;21.40;;;17.60;41.30;;;;;;4969931;28;92975;-68
2022/03/09 13:47:45;;;;;;;26.60;20.77;;;17.70;41.30;;;;;;4970187;28;93152;-70
2022/03/09 13:50:34;;;;;;;27.13;20.75;;;17.70;41.40;;;;;;4969391;28;93932;-68
2022/03/09 13:53:08;;;;;;;28.83;20.65;;;17.70;41.40;;;;;;4969138;28;92771;-68
2022/03/09 13:55:44;;;;;;;26.08;20.27;;;17.70;41.40;;;;;;4970906;28;93061;-68
2022/03/09 13:58:18;;;;;;;23.65;19.33;;;17.70;41.40;;;;;;4969927;28;93372;-68
2022/03/09 14:00:47;;;;;;;23.40;18.58;;;17.70;41.40;;;;;;4969975;28;93380;-68
2022/03/09 14:03:19;;;;;;;24.25;18.63;;;17.70;41.40;;;;;;4969955;28;93030;-68
2022/03/09 14:05:47;;;;;;;23.23;19.00;;;17.70;41.30;;;;;;4969811;28;92977;-68
2022/03/09 14:08:30;;;;;;;24.45;19.15;;;17.70;41.30;;;;;;4968874;28;95938;-69
2022/03/09 14:11:29;;;;;;;21.95;17.95;;;17.70;41.30;;;;;;4951542;28;95518;-68
2022/03/09 14:14:09;;;;;;;22.73;18.00;;;17.70;41.30;;;;;;4965221;28;92616;-68
2022/03/09 14:16:43;;;;;;;23.08;17.30;;;17.70;41.30;;;;;;4969087;28;92629;-68
2022/03/09 14:19:12;;;;;;;21.23;16.65;;;17.70;41.30;;;;;;4969541;28;94825;-69
2022/03/09 14:21:39;;;;;;;22.75;15.98;;;17.70;41.20;;;;;;4969051;28;94561;-68
2022/03/09 14:24:06;;;;;;;19.60;16.88;;;17.80;41.30;;;;;;4970074;28;92545;-68
2022/03/09 14:26:39;;;;;;;22.17;16.48;;;17.80;41.20;;;;;;4969124;28;92370;-68
2022/03/09 14:29:05;;;;;;;21.15;16.33;;;17.80;41.10;;;;;;4969315;28;92961;-68
2022/03/09 14:31:32;;;;;;;21.50;16.38;;;17.80;41.10;;;;;;4969582;28;93933;-69